sensor_id;sensor_type;location;lat;lon;timestamp;temperature;humidity
53073;DHT22;38955;48.916;2.336;2024-02-21T00:00:07;10.30;99.90
53073;DHT22;38955;48.916;2.336;2024-02-21T00:02:11;10.40;99.90
53073;DHT22;38955;48.916;2.336;2024-02-21T00:04:13;10.40;99.90
53073;DHT22;38955;48.916;2.336;2024-02-21T00:06:15;10.30;99.90
53073;DHT22;38955;48.916;2.336;2024-02-21T00:08:17;10.40;99.90
53073;DHT22;38955;48.916;2.336;2024-02-21T00:10:20;10.40;99.90
53073;DHT22;38955;48.916;2.336;2024-02-21T00:12:22;10.40;99.90
53073;DHT22;38955;48.916;2.336;2024-02-21T00:14:24;10.30;99.90
53073;DHT22;38955;48.916;2.336;2024-02-21T00:16:26;10.40;99.90
53073;DHT22;38955;48.916;2.336;2024-02-21T00:18:30;10.40;99.90
53073;DHT22;38955;48.916;2.336;2024-02-21T00:20:32;10.50;99.90
53073;DHT22;38955;48.916;2.336;2024-02-21T00:22:34;10.50;99.90
53073;DHT22;38955;48.916;2.336;2024-02-21T00:24:37;10.50;99.90
53073;DHT22;38955;48.916;2.336;2024-02-21T00:26:39;10.40;99.90
53073;DHT22;38955;48.916;2.336;2024-02-21T00:28:41;10.50;99.90
53073;DHT22;38955;48.916;2.336;2024-02-21T00:30:43;10.50;99.90
53073;DHT22;38955;48.916;2.336;2024-02-21T00:32:46;10.50;99.90
53073;DHT22;38955;48.916;2.336;2024-02-21T00:34:49;10.40;99.90
53073;DHT22;38955;48.916;2.336;2024-02-21T00:36:51;10.50;99.90
53073;DHT22;38955;48.916;2.336;2024-02-21T00:38:53;10.40;99.90
53073;DHT22;38955;48.916;2.336;2024-02-21T00:40:55;10.40;99.90
53073;DHT22;38955;48.916;2.336;2024-02-21T00:42:57;10.50;99.90
53073;DHT22;38955;48.916;2.336;2024-02-21T00:45:00;10.40;99.90
53073;DHT22;38955;48.916;2.336;2024-02-21T00:47:02;10.40;99.90
53073;DHT22;38955;48.916;2.336;2024-02-21T00:49:04;10.40;99.90
53073;DHT22;38955;48.916;2.336;2024-02-21T00:51:07;10.50;99.90
53073;DHT22;38955;48.916;2.336;2024-02-21T00:53:09;10.50;99.90
53073;DHT22;38955;48.916;2.336;2024-02-21T00:55:12;10.50;99.90
53073;DHT22;38955;48.916;2.336;2024-02-21T00:57:14;10.50;99.90
53073;DHT22;38955;48.916;2.336;2024-02-21T00:59:18;10.50;99.90
53073;DHT22;38955;48.916;2.336;2024-02-21T01:01:24;10.40;99.90
53073;DHT22;38955;48.916;2.336;2024-02-21T01:03:27;10.50;99.90
53073;DHT22;38955;48.916;2.336;2024-02-21T01:05:29;10.50;99.90
53073;DHT22;38955;48.916;2.336;2024-02-21T01:07:34;10.40;99.90
53073;DHT22;38955;48.916;2.336;2024-02-21T01:09:36;10.50;99.90
53073;DHT22;38955;48.916;2.336;2024-02-21T01:11:38;10.50;99.90
53073;DHT22;38955;48.916;2.336;2024-02-21T01:13:40;10.60;99.90
53073;DHT22;38955;48.916;2.336;2024-02-21T01:15:42;10.60;99.90
53073;DHT22;38955;48.916;2.336;2024-02-21T01:17:45;10.50;99.90
53073;DHT22;38955;48.916;2.336;2024-02-21T01:19:47;10.50;99.90
53073;DHT22;38955;48.916;2.336;2024-02-21T01:21:49;10.50;99.90
53073;DHT22;38955;48.916;2.336;2024-02-21T01:23:52;10.50;99.90
53073;DHT22;38955;48.916;2.336;2024-02-21T01:25:55;10.60;99.90
53073;DHT22;38955;48.916;2.336;2024-02-21T01:27:57;10.60;99.90
53073;DHT22;38955;48.916;2.336;2024-02-21T01:29:59;10.60;99.90
53073;DHT22;38955;48.916;2.336;2024-02-21T01:32:05;10.60;99.90
53073;DHT22;38955;48.916;2.336;2024-02-21T01:34:08;10.60;99.90
53073;DHT22;38955;48.916;2.336;2024-02-21T01:36:10;10.60;99.90
53073;DHT22;38955;48.916;2.336;2024-02-21T01:38:13;10.60;99.90
53073;DHT22;38955;48.916;2.336;2024-02-21T01:40:16;10.60;99.90
53073;DHT22;38955;48.916;2.336;2024-02-21T01:42:18;10.50;99.90
53073;DHT22;38955;48.916;2.336;2024-02-21T01:44:21;10.60;99.90
53073;DHT22;38955;48.916;2.336;2024-02-21T01:46:23;10.60;99.90
53073;DHT22;38955;48.916;2.336;2024-02-21T01:48:29;10.50;99.90
53073;DHT22;38955;48.916;2.336;2024-02-21T01:50:32;10.50;99.90
53073;DHT22;38955;48.916;2.336;2024-02-21T01:52:35;10.60;99.90
53073;DHT22;38955;48.916;2.336;2024-02-21T01:54:38;10.60;99.90
53073;DHT22;38955;48.916;2.336;2024-02-21T01:56:41;10.50;99.90
53073;DHT22;38955;48.916;2.336;2024-02-21T01:58:44;10.50;99.90
53073;DHT22;38955;48.916;2.336;2024-02-21T02:00:47;10.50;99.90
53073;DHT22;38955;48.916;2.336;2024-02-21T02:02:50;10.50;99.90
53073;DHT22;38955;48.916;2.336;2024-02-21T02:04:52;10.50;99.90
53073;DHT22;38955;48.916;2.336;2024-02-21T02:06:55;10.50;99.90
53073;DHT22;38955;48.916;2.336;2024-02-21T02:08:57;10.50;99.90
53073;DHT22;38955;48.916;2.336;2024-02-21T02:11:00;10.40;99.90
53073;DHT22;38955;48.916;2.336;2024-02-21T02:13:03;10.50;99.90
53073;DHT22;38955;48.916;2.336;2024-02-21T02:15:06;10.40;99.90
53073;DHT22;38955;48.916;2.336;2024-02-21T02:17:09;10.40;99.90
53073;DHT22;38955;48.916;2.336;2024-02-21T02:19:11;10.30;99.90
53073;DHT22;38955;48.916;2.336;2024-02-21T02:21:29;10.30;99.90
53073;DHT22;38955;48.916;2.336;2024-02-21T02:23:33;10.30;99.90
53073;DHT22;38955;48.916;2.336;2024-02-21T02:25:36;10.30;99.90
53073;DHT22;38955;48.916;2.336;2024-02-21T02:27:44;10.30;99.90
53073;DHT22;38955;48.916;2.336;2024-02-21T02:29:46;10.20;99.90
53073;DHT22;38955;48.916;2.336;2024-02-21T02:31:49;10.20;99.90
53073;DHT22;38955;48.916;2.336;2024-02-21T02:33:51;10.20;99.90
53073;DHT22;38955;48.916;2.336;2024-02-21T02:35:53;10.30;99.90
53073;DHT22;38955;48.916;2.336;2024-02-21T02:37:56;10.20;99.90
53073;DHT22;38955;48.916;2.336;2024-02-21T02:39:59;10.30;99.90
53073;DHT22;38955;48.916;2.336;2024-02-21T02:42:02;10.30;99.90
53073;DHT22;38955;48.916;2.336;2024-02-21T02:44:04;10.40;99.90
53073;DHT22;38955;48.916;2.336;2024-02-21T02:46:06;10.40;99.90
53073;DHT22;38955;48.916;2.336;2024-02-21T02:48:08;10.40;99.90
53073;DHT22;38955;48.916;2.336;2024-02-21T02:50:11;10.40;99.90
53073;DHT22;38955;48.916;2.336;2024-02-21T02:52:14;10.30;99.90
53073;DHT22;38955;48.916;2.336;2024-02-21T02:54:16;10.40;99.90
53073;DHT22;38955;48.916;2.336;2024-02-21T02:56:19;10.30;99.90
53073;DHT22;38955;48.916;2.336;2024-02-21T02:58:21;10.30;99.90
53073;DHT22;38955;48.916;2.336;2024-02-21T03:00:23;10.30;99.90
53073;DHT22;38955;48.916;2.336;2024-02-21T03:02:26;10.30;99.90
53073;DHT22;38955;48.916;2.336;2024-02-21T03:04:28;10.40;99.90
53073;DHT22;38955;48.916;2.336;2024-02-21T03:06:31;10.40;99.90
53073;DHT22;38955;48.916;2.336;2024-02-21T03:08:33;10.30;99.90
53073;DHT22;38955;48.916;2.336;2024-02-21T03:10:36;10.30;99.90
53073;DHT22;38955;48.916;2.336;2024-02-21T03:12:39;10.40;99.90
53073;DHT22;38955;48.916;2.336;2024-02-21T03:14:42;10.40;99.90
53073;DHT22;38955;48.916;2.336;2024-02-21T03:16:44;10.40;99.90
53073;DHT22;38955;48.916;2.336;2024-02-21T03:18:46;10.50;99.90
53073;DHT22;38955;48.916;2.336;2024-02-21T03:20:48;10.40;99.90
53073;DHT22;38955;48.916;2.336;2024-02-21T03:22:50;10.40;99.90
53073;DHT22;38955;48.916;2.336;2024-02-21T03:24:53;10.30;99.90
53073;DHT22;38955;48.916;2.336;2024-02-21T03:26:55;10.20;99.90
53073;DHT22;38955;48.916;2.336;2024-02-21T03:28:58;10.30;99.90
53073;DHT22;38955;48.916;2.336;2024-02-21T03:31:01;10.30;99.90
53073;DHT22;38955;48.916;2.336;2024-02-21T03:33:03;10.20;99.90
53073;DHT22;38955;48.916;2.336;2024-02-21T03:35:06;10.20;99.90
53073;DHT22;38955;48.916;2.336;2024-02-21T03:37:08;10.20;99.90
53073;DHT22;38955;48.916;2.336;2024-02-21T03:39:10;10.20;99.90
53073;DHT22;38955;48.916;2.336;2024-02-21T03:41:13;10.20;99.90
53073;DHT22;38955;48.916;2.336;2024-02-21T03:43:15;10.20;99.90
53073;DHT22;38955;48.916;2.336;2024-02-21T03:45:18;10.10;99.90
53073;DHT22;38955;48.916;2.336;2024-02-21T03:47:21;10.20;99.90
53073;DHT22;38955;48.916;2.336;2024-02-21T03:49:23;10.30;99.90
53073;DHT22;38955;48.916;2.336;2024-02-21T03:51:26;10.30;99.90
53073;DHT22;38955;48.916;2.336;2024-02-21T03:53:28;10.40;99.90
53073;DHT22;38955;48.916;2.336;2024-02-21T03:55:30;10.40;99.90
53073;DHT22;38955;48.916;2.336;2024-02-21T03:57:32;10.40;99.90
53073;DHT22;38955;48.916;2.336;2024-02-21T03:59:35;10.50;99.90
53073;DHT22;38955;48.916;2.336;2024-02-21T04:01:38;10.50;99.90
53073;DHT22;38955;48.916;2.336;2024-02-21T04:03:40;10.40;99.90
53073;DHT22;38955;48.916;2.336;2024-02-21T04:05:42;10.40;99.90
53073;DHT22;38955;48.916;2.336;2024-02-21T04:07:45;10.40;99.90
53073;DHT22;38955;48.916;2.336;2024-02-21T04:09:47;10.40;99.90
53073;DHT22;38955;48.916;2.336;2024-02-21T04:11:49;10.40;99.90
53073;DHT22;38955;48.916;2.336;2024-02-21T04:13:51;10.40;99.90
53073;DHT22;38955;48.916;2.336;2024-02-21T04:15:57;10.30;99.90
53073;DHT22;38955;48.916;2.336;2024-02-21T04:18:00;10.40;99.90
53073;DHT22;38955;48.916;2.336;2024-02-21T04:20:04;10.40;99.90
53073;DHT22;38955;48.916;2.336;2024-02-21T04:22:10;10.30;99.90
53073;DHT22;38955;48.916;2.336;2024-02-21T04:24:12;10.30;99.90
53073;DHT22;38955;48.916;2.336;2024-02-21T04:26:14;10.30;99.90
53073;DHT22;38955;48.916;2.336;2024-02-21T04:28:16;10.30;99.90
53073;DHT22;38955;48.916;2.336;2024-02-21T04:30:18;10.20;99.90
53073;DHT22;38955;48.916;2.336;2024-02-21T04:32:21;10.20;99.90
53073;DHT22;38955;48.916;2.336;2024-02-21T04:34:25;10.20;99.90
53073;DHT22;38955;48.916;2.336;2024-02-21T04:36:27;10.20;99.90
53073;DHT22;38955;48.916;2.336;2024-02-21T04:38:30;10.10;99.90
53073;DHT22;38955;48.916;2.336;2024-02-21T04:40:32;10.20;99.90
53073;DHT22;38955;48.916;2.336;2024-02-21T04:42:34;10.10;99.90
53073;DHT22;38955;48.916;2.336;2024-02-21T04:44:36;10.10;99.90
53073;DHT22;38955;48.916;2.336;2024-02-21T04:46:42;10.10;99.90
53073;DHT22;38955;48.916;2.336;2024-02-21T04:48:44;10.10;99.90
53073;DHT22;38955;48.916;2.336;2024-02-21T04:50:48;10.10;99.90
53073;DHT22;38955;48.916;2.336;2024-02-21T04:52:50;10.10;99.90
53073;DHT22;38955;48.916;2.336;2024-02-21T04:54:52;10.30;99.90
53073;DHT22;38955;48.916;2.336;2024-02-21T04:56:54;10.30;99.90
53073;DHT22;38955;48.916;2.336;2024-02-21T04:58:57;10.30;99.90
53073;DHT22;38955;48.916;2.336;2024-02-21T05:00:59;10.20;99.90
53073;DHT22;38955;48.916;2.336;2024-02-21T05:03:02;10.20;99.90
53073;DHT22;38955;48.916;2.336;2024-02-21T05:05:04;10.10;99.90
53073;DHT22;38955;48.916;2.336;2024-02-21T05:07:08;10.10;99.90
53073;DHT22;38955;48.916;2.336;2024-02-21T05:09:13;10.10;99.90
53073;DHT22;38955;48.916;2.336;2024-02-21T05:11:15;10.10;99.90
53073;DHT22;38955;48.916;2.336;2024-02-21T05:13:18;10.00;99.90
53073;DHT22;38955;48.916;2.336;2024-02-21T05:15:20;10.00;99.90
53073;DHT22;38955;48.916;2.336;2024-02-21T05:17:22;10.00;99.90
53073;DHT22;38955;48.916;2.336;2024-02-21T05:19:24;10.00;99.90
53073;DHT22;38955;48.916;2.336;2024-02-21T05:21:26;9.90;99.90
53073;DHT22;38955;48.916;2.336;2024-02-21T05:23:31;9.90;99.90
53073;DHT22;38955;48.916;2.336;2024-02-21T05:25:33;10.00;99.90
53073;DHT22;38955;48.916;2.336;2024-02-21T05:27:35;9.90;99.90
53073;DHT22;38955;48.916;2.336;2024-02-21T05:29:38;10.00;99.90
53073;DHT22;38955;48.916;2.336;2024-02-21T05:31:55;10.00;99.90
53073;DHT22;38955;48.916;2.336;2024-02-21T05:34:00;10.00;99.90
53073;DHT22;38955;48.916;2.336;2024-02-21T05:36:06;10.00;99.90
53073;DHT22;38955;48.916;2.336;2024-02-21T05:38:08;10.00;99.90
53073;DHT22;38955;48.916;2.336;2024-02-21T05:40:15;10.00;99.90
53073;DHT22;38955;48.916;2.336;2024-02-21T05:42:17;10.00;99.90
53073;DHT22;38955;48.916;2.336;2024-02-21T05:44:19;10.00;99.90
53073;DHT22;38955;48.916;2.336;2024-02-21T05:46:21;9.90;99.90
53073;DHT22;38955;48.916;2.336;2024-02-21T05:48:23;10.00;99.90
53073;DHT22;38955;48.916;2.336;2024-02-21T05:50:26;10.00;99.90
53073;DHT22;38955;48.916;2.336;2024-02-21T05:52:28;10.00;99.90
53073;DHT22;38955;48.916;2.336;2024-02-21T05:54:30;9.90;99.90
53073;DHT22;38955;48.916;2.336;2024-02-21T05:56:34;9.90;99.90
53073;DHT22;38955;48.916;2.336;2024-02-21T05:58:36;10.00;99.90
53073;DHT22;38955;48.916;2.336;2024-02-21T06:00:38;9.90;99.90
53073;DHT22;38955;48.916;2.336;2024-02-21T06:02:40;9.90;99.90
53073;DHT22;38955;48.916;2.336;2024-02-21T06:04:43;9.90;99.90
53073;DHT22;38955;48.916;2.336;2024-02-21T06:06:46;9.70;99.90
53073;DHT22;38955;48.916;2.336;2024-02-21T06:08:48;9.70;99.90
53073;DHT22;38955;48.916;2.336;2024-02-21T06:10:50;9.70;99.90
53073;DHT22;38955;48.916;2.336;2024-02-21T06:12:57;9.70;99.90
53073;DHT22;38955;48.916;2.336;2024-02-21T06:15:00;9.80;99.90
53073;DHT22;38955;48.916;2.336;2024-02-21T06:17:02;9.70;99.90
53073;DHT22;38955;48.916;2.336;2024-02-21T06:19:04;9.60;99.90
53073;DHT22;38955;48.916;2.336;2024-02-21T06:21:10;9.60;99.90
53073;DHT22;38955;48.916;2.336;2024-02-21T06:23:16;9.70;99.90
53073;DHT22;38955;48.916;2.336;2024-02-21T06:25:18;9.70;99.90
53073;DHT22;38955;48.916;2.336;2024-02-21T06:27:20;9.70;99.90
53073;DHT22;38955;48.916;2.336;2024-02-21T06:29:24;9.60;99.90
53073;DHT22;38955;48.916;2.336;2024-02-21T06:31:26;9.60;99.90
53073;DHT22;38955;48.916;2.336;2024-02-21T06:33:28;9.50;99.90
53073;DHT22;38955;48.916;2.336;2024-02-21T06:35:31;9.60;99.90
53073;DHT22;38955;48.916;2.336;2024-02-21T06:37:33;9.60;99.90
53073;DHT22;38955;48.916;2.336;2024-02-21T06:39:35;9.70;99.90
53073;DHT22;38955;48.916;2.336;2024-02-21T06:41:39;9.70;99.90
53073;DHT22;38955;48.916;2.336;2024-02-21T06:43:42;9.60;99.90
53073;DHT22;38955;48.916;2.336;2024-02-21T06:45:46;9.70;99.90
53073;DHT22;38955;48.916;2.336;2024-02-21T06:47:54;9.70;99.90
53073;DHT22;38955;48.916;2.336;2024-02-21T06:49:56;9.60;99.90
53073;DHT22;38955;48.916;2.336;2024-02-21T06:51:59;9.70;99.90
53073;DHT22;38955;48.916;2.336;2024-02-21T06:54:01;9.60;99.90
53073;DHT22;38955;48.916;2.336;2024-02-21T06:56:04;9.60;99.90
53073;DHT22;38955;48.916;2.336;2024-02-21T06:58:06;9.60;99.90
53073;DHT22;38955;48.916;2.336;2024-02-21T07:00:14;9.60;99.90
53073;DHT22;38955;48.916;2.336;2024-02-21T07:02:21;9.60;99.90
53073;DHT22;38955;48.916;2.336;2024-02-21T07:04:24;9.60;99.90
53073;DHT22;38955;48.916;2.336;2024-02-21T07:06:26;9.60;99.90
53073;DHT22;38955;48.916;2.336;2024-02-21T07:08:28;9.60;99.90
53073;DHT22;38955;48.916;2.336;2024-02-21T07:10:30;9.60;99.90
53073;DHT22;38955;48.916;2.336;2024-02-21T07:12:32;9.60;99.90
53073;DHT22;38955;48.916;2.336;2024-02-21T07:14:35;9.70;99.90
53073;DHT22;38955;48.916;2.336;2024-02-21T07:16:38;9.60;99.90
53073;DHT22;38955;48.916;2.336;2024-02-21T07:18:42;9.70;99.90
53073;DHT22;38955;48.916;2.336;2024-02-21T07:20:44;9.70;99.90
53073;DHT22;38955;48.916;2.336;2024-02-21T07:22:47;9.70;99.90
53073;DHT22;38955;48.916;2.336;2024-02-21T07:24:49;9.80;99.90
53073;DHT22;38955;48.916;2.336;2024-02-21T07:26:51;9.80;99.90
53073;DHT22;38955;48.916;2.336;2024-02-21T07:28:53;9.80;99.90
53073;DHT22;38955;48.916;2.336;2024-02-21T07:30:55;9.90;99.90
53073;DHT22;38955;48.916;2.336;2024-02-21T07:32:57;9.90;99.90
53073;DHT22;38955;48.916;2.336;2024-02-21T07:35:01;9.90;99.90
53073;DHT22;38955;48.916;2.336;2024-02-21T07:37:03;10.00;99.90
53073;DHT22;38955;48.916;2.336;2024-02-21T07:39:06;9.90;99.90
53073;DHT22;38955;48.916;2.336;2024-02-21T07:41:08;9.90;99.90
53073;DHT22;38955;48.916;2.336;2024-02-21T07:43:10;9.90;99.90
53073;DHT22;38955;48.916;2.336;2024-02-21T07:45:12;9.90;99.90
53073;DHT22;38955;48.916;2.336;2024-02-21T07:47:15;9.90;99.90
53073;DHT22;38955;48.916;2.336;2024-02-21T07:49:17;9.90;99.90
53073;DHT22;38955;48.916;2.336;2024-02-21T07:51:20;10.00;99.90
53073;DHT22;38955;48.916;2.336;2024-02-21T07:53:23;10.00;99.90
53073;DHT22;38955;48.916;2.336;2024-02-21T07:55:25;10.00;99.90
53073;DHT22;38955;48.916;2.336;2024-02-21T07:57:27;10.00;99.90
53073;DHT22;38955;48.916;2.336;2024-02-21T07:59:29;10.00;99.90
53073;DHT22;38955;48.916;2.336;2024-02-21T08:01:32;10.00;99.90
53073;DHT22;38955;48.916;2.336;2024-02-21T08:03:34;10.10;99.90
53073;DHT22;38955;48.916;2.336;2024-02-21T08:05:36;10.10;99.90
53073;DHT22;38955;48.916;2.336;2024-02-21T08:07:40;10.20;99.90
53073;DHT22;38955;48.916;2.336;2024-02-21T08:09:42;10.20;99.90
53073;DHT22;38955;48.916;2.336;2024-02-21T08:11:44;10.30;99.90
53073;DHT22;38955;48.916;2.336;2024-02-21T08:13:46;10.30;99.90
53073;DHT22;38955;48.916;2.336;2024-02-21T08:15:48;10.40;99.90
53073;DHT22;38955;48.916;2.336;2024-02-21T08:17:50;10.30;99.90
53073;DHT22;38955;48.916;2.336;2024-02-21T08:19:52;10.40;99.90
53073;DHT22;38955;48.916;2.336;2024-02-21T08:21:54;10.50;99.90
53073;DHT22;38955;48.916;2.336;2024-02-21T08:23:58;10.50;99.90
53073;DHT22;38955;48.916;2.336;2024-02-21T08:26:03;10.50;99.90
53073;DHT22;38955;48.916;2.336;2024-02-21T08:28:05;10.60;99.90
53073;DHT22;38955;48.916;2.336;2024-02-21T08:30:08;10.50;99.90
53073;DHT22;38955;48.916;2.336;2024-02-21T08:32:10;10.40;99.90
53073;DHT22;38955;48.916;2.336;2024-02-21T08:34:12;10.40;99.90
53073;DHT22;38955;48.916;2.336;2024-02-21T08:36:18;10.40;99.90
53073;DHT22;38955;48.916;2.336;2024-02-21T08:38:21;10.50;99.90
53073;DHT22;38955;48.916;2.336;2024-02-21T08:40:25;10.50;99.90
53073;DHT22;38955;48.916;2.336;2024-02-21T08:42:27;10.50;99.90
53073;DHT22;38955;48.916;2.336;2024-02-21T08:44:31;10.60;99.90
53073;DHT22;38955;48.916;2.336;2024-02-21T08:46:33;10.50;99.90
53073;DHT22;38955;48.916;2.336;2024-02-21T08:48:35;10.50;99.90
53073;DHT22;38955;48.916;2.336;2024-02-21T08:50:37;10.50;99.90
53073;DHT22;38955;48.916;2.336;2024-02-21T08:52:40;10.60;99.90
53073;DHT22;38955;48.916;2.336;2024-02-21T08:54:44;10.70;99.90
53073;DHT22;38955;48.916;2.336;2024-02-21T08:56:48;10.80;99.90
53073;DHT22;38955;48.916;2.336;2024-02-21T08:58:50;10.60;99.90
53073;DHT22;38955;48.916;2.336;2024-02-21T09:00:55;10.60;99.90
53073;DHT22;38955;48.916;2.336;2024-02-21T09:02:57;10.70;99.90
53073;DHT22;38955;48.916;2.336;2024-02-21T09:04:59;10.80;99.90
53073;DHT22;38955;48.916;2.336;2024-02-21T09:07:01;10.90;99.90
53073;DHT22;38955;48.916;2.336;2024-02-21T09:09:03;11.40;99.90
53073;DHT22;38955;48.916;2.336;2024-02-21T09:11:06;11.70;99.90
53073;DHT22;38955;48.916;2.336;2024-02-21T09:13:10;11.80;99.90
53073;DHT22;38955;48.916;2.336;2024-02-21T09:15:12;11.90;99.90
53073;DHT22;38955;48.916;2.336;2024-02-21T09:17:14;12.00;99.90
53073;DHT22;38955;48.916;2.336;2024-02-21T09:19:19;12.10;99.80
53073;DHT22;38955;48.916;2.336;2024-02-21T09:21:21;12.10;99.90
53073;DHT22;38955;48.916;2.336;2024-02-21T09:23:24;12.20;99.90
53073;DHT22;38955;48.916;2.336;2024-02-21T09:25:26;12.30;99.90
53073;DHT22;38955;48.916;2.336;2024-02-21T09:27:29;12.20;99.50
53073;DHT22;38955;48.916;2.336;2024-02-21T09:29:32;11.90;99.90
53073;DHT22;38955;48.916;2.336;2024-02-21T09:31:38;12.00;99.90
53073;DHT22;38955;48.916;2.336;2024-02-21T09:33:40;12.10;99.90
53073;DHT22;38955;48.916;2.336;2024-02-21T09:35:43;12.10;99.20
53073;DHT22;38955;48.916;2.336;2024-02-21T09:37:45;12.10;99.70
53073;DHT22;38955;48.916;2.336;2024-02-21T09:39:47;12.20;99.40
53073;DHT22;38955;48.916;2.336;2024-02-21T09:41:52;12.10;99.50
53073;DHT22;38955;48.916;2.336;2024-02-21T09:43:57;12.30;99.60
53073;DHT22;38955;48.916;2.336;2024-02-21T09:46:01;12.50;99.40
53073;DHT22;38955;48.916;2.336;2024-02-21T09:48:17;12.40;99.00
53073;DHT22;38955;48.916;2.336;2024-02-21T09:50:23;12.50;99.40
53073;DHT22;38955;48.916;2.336;2024-02-21T09:52:27;12.40;99.10
53073;DHT22;38955;48.916;2.336;2024-02-21T09:54:29;12.50;99.30
53073;DHT22;38955;48.916;2.336;2024-02-21T09:56:34;12.60;98.80
53073;DHT22;38955;48.916;2.336;2024-02-21T09:58:36;12.50;99.00
53073;DHT22;38955;48.916;2.336;2024-02-21T10:00:39;12.50;99.10
53073;DHT22;38955;48.916;2.336;2024-02-21T10:02:42;12.40;98.70
53073;DHT22;38955;48.916;2.336;2024-02-21T10:04:44;12.50;99.50
53073;DHT22;38955;48.916;2.336;2024-02-21T10:06:47;12.70;99.20
53073;DHT22;38955;48.916;2.336;2024-02-21T10:08:52;12.80;99.10
53073;DHT22;38955;48.916;2.336;2024-02-21T10:10:55;12.90;98.60
53073;DHT22;38955;48.916;2.336;2024-02-21T10:13:01;12.90;98.20
53073;DHT22;38955;48.916;2.336;2024-02-21T10:15:03;12.90;98.60
53073;DHT22;38955;48.916;2.336;2024-02-21T10:17:06;12.90;98.30
53073;DHT22;38955;48.916;2.336;2024-02-21T10:19:23;12.80;98.50
53073;DHT22;38955;48.916;2.336;2024-02-21T10:21:25;12.90;98.30
53073;DHT22;38955;48.916;2.336;2024-02-21T10:23:27;12.80;98.30
53073;DHT22;38955;48.916;2.336;2024-02-21T10:25:29;12.90;98.30
53073;DHT22;38955;48.916;2.336;2024-02-21T10:27:32;12.90;98.60
53073;DHT22;38955;48.916;2.336;2024-02-21T10:29:34;13.00;98.10
53073;DHT22;38955;48.916;2.336;2024-02-21T10:31:36;12.90;98.30
53073;DHT22;38955;48.916;2.336;2024-02-21T10:33:41;13.00;98.50
53073;DHT22;38955;48.916;2.336;2024-02-21T10:35:45;13.10;98.30
53073;DHT22;38955;48.916;2.336;2024-02-21T10:37:47;13.20;98.00
53073;DHT22;38955;48.916;2.336;2024-02-21T10:39:49;13.20;98.20
53073;DHT22;38955;48.916;2.336;2024-02-21T10:41:54;13.30;97.70
53073;DHT22;38955;48.916;2.336;2024-02-21T10:43:57;13.30;98.00
53073;DHT22;38955;48.916;2.336;2024-02-21T10:46:03;13.40;97.70
53073;DHT22;38955;48.916;2.336;2024-02-21T10:48:11;13.30;97.70
53073;DHT22;38955;48.916;2.336;2024-02-21T10:50:15;13.30;97.70
53073;DHT22;38955;48.916;2.336;2024-02-21T10:52:31;13.50;98.00
53073;DHT22;38955;48.916;2.336;2024-02-21T10:54:41;13.60;97.90
53073;DHT22;38955;48.916;2.336;2024-02-21T10:56:46;13.70;97.30
53073;DHT22;38955;48.916;2.336;2024-02-21T10:58:49;13.80;97.60
53073;DHT22;38955;48.916;2.336;2024-02-21T11:00:51;13.80;97.00
53073;DHT22;38955;48.916;2.336;2024-02-21T11:02:54;13.70;97.30
53073;DHT22;38955;48.916;2.336;2024-02-21T11:04:58;13.70;97.20
53073;DHT22;38955;48.916;2.336;2024-02-21T11:07:01;13.70;97.50
53073;DHT22;38955;48.916;2.336;2024-02-21T11:09:07;13.80;96.90
53073;DHT22;38955;48.916;2.336;2024-02-21T11:11:12;13.70;97.10
53073;DHT22;38955;48.916;2.336;2024-02-21T11:13:35;13.70;97.00
53073;DHT22;38955;48.916;2.336;2024-02-21T11:15:37;13.80;97.00
53073;DHT22;38955;48.916;2.336;2024-02-21T11:17:39;13.70;97.00
53073;DHT22;38955;48.916;2.336;2024-02-21T11:19:51;13.50;97.40
53073;DHT22;38955;48.916;2.336;2024-02-21T11:21:57;13.50;97.50
53073;DHT22;38955;48.916;2.336;2024-02-21T11:24:02;13.40;97.10
53073;DHT22;38955;48.916;2.336;2024-02-21T11:26:07;13.40;97.40
53073;DHT22;38955;48.916;2.336;2024-02-21T11:28:09;13.30;97.60
53073;DHT22;38955;48.916;2.336;2024-02-21T11:30:13;13.40;97.90
53073;DHT22;38955;48.916;2.336;2024-02-21T11:32:18;13.70;97.70
53073;DHT22;38955;48.916;2.336;2024-02-21T11:34:21;13.80;97.00
53073;DHT22;38955;48.916;2.336;2024-02-21T11:36:25;13.60;97.30
53073;DHT22;38955;48.916;2.336;2024-02-21T11:38:27;13.70;97.30
53073;DHT22;38955;48.916;2.336;2024-02-21T11:40:29;13.70;97.10
53073;DHT22;38955;48.916;2.336;2024-02-21T11:42:32;13.70;97.30
53073;DHT22;38955;48.916;2.336;2024-02-21T11:44:35;13.70;97.20
53073;DHT22;38955;48.916;2.336;2024-02-21T11:46:42;13.40;97.40
53073;DHT22;38955;48.916;2.336;2024-02-21T11:48:45;13.50;97.60
53073;DHT22;38955;48.916;2.336;2024-02-21T11:50:55;13.40;97.40
53073;DHT22;38955;48.916;2.336;2024-02-21T11:52:57;13.30;97.40
53073;DHT22;38955;48.916;2.336;2024-02-21T11:55:00;13.30;97.70
53073;DHT22;38955;48.916;2.336;2024-02-21T11:57:07;13.20;97.60
53073;DHT22;38955;48.916;2.336;2024-02-21T11:59:12;13.20;97.60
53073;DHT22;38955;48.916;2.336;2024-02-21T12:01:14;13.20;98.00
53073;DHT22;38955;48.916;2.336;2024-02-21T12:03:21;13.20;97.70
53073;DHT22;38955;48.916;2.336;2024-02-21T12:05:23;13.30;97.90
53073;DHT22;38955;48.916;2.336;2024-02-21T12:07:25;13.20;97.80
53073;DHT22;38955;48.916;2.336;2024-02-21T12:09:27;13.20;97.80
53073;DHT22;38955;48.916;2.336;2024-02-21T12:11:29;13.30;97.80
53073;DHT22;38955;48.916;2.336;2024-02-21T12:13:32;13.10;97.90
53073;DHT22;38955;48.916;2.336;2024-02-21T12:15:40;13.10;98.10
53073;DHT22;38955;48.916;2.336;2024-02-21T12:17:43;12.90;98.10
53073;DHT22;38955;48.916;2.336;2024-02-21T12:19:45;13.00;98.30
53073;DHT22;38955;48.916;2.336;2024-02-21T12:21:48;13.10;98.10
53073;DHT22;38955;48.916;2.336;2024-02-21T12:23:51;13.10;98.00
53073;DHT22;38955;48.916;2.336;2024-02-21T12:25:54;13.10;98.30
53073;DHT22;38955;48.916;2.336;2024-02-21T12:27:56;13.10;98.10
53073;DHT22;38955;48.916;2.336;2024-02-21T12:29:58;13.20;98.10
53073;DHT22;38955;48.916;2.336;2024-02-21T12:32:02;13.20;97.90
53073;DHT22;38955;48.916;2.336;2024-02-21T12:34:06;13.20;97.80
53073;DHT22;38955;48.916;2.336;2024-02-21T12:36:08;13.00;98.10
53073;DHT22;38955;48.916;2.336;2024-02-21T12:38:11;13.10;97.90
53073;DHT22;38955;48.916;2.336;2024-02-21T12:40:15;13.00;98.00
53073;DHT22;38955;48.916;2.336;2024-02-21T12:42:18;13.00;98.00
53073;DHT22;38955;48.916;2.336;2024-02-21T12:44:20;13.00;98.00
53073;DHT22;38955;48.916;2.336;2024-02-21T12:46:22;13.00;97.80
53073;DHT22;38955;48.916;2.336;2024-02-21T12:48:26;13.10;98.10
53073;DHT22;38955;48.916;2.336;2024-02-21T12:50:29;13.10;97.90
53073;DHT22;38955;48.916;2.336;2024-02-21T12:52:31;13.10;98.10
53073;DHT22;38955;48.916;2.336;2024-02-21T12:54:33;13.10;98.20
53073;DHT22;38955;48.916;2.336;2024-02-21T12:56:36;13.00;97.90
53073;DHT22;38955;48.916;2.336;2024-02-21T12:58:38;12.90;98.30